Time;durP1;ratioP1;P1;durP2;ratioP2;P2;SDS_P1;SDS_P2;PMS_P1;PMS_P2;Temp;Humidity;BMP_temperature;BMP_pressure;BME280_temperature;BME280_humidity;BME280_pressure;Samples;Min_cycle;Max_cycle;Signal;HPM_P1;HPM_P2
2022/12/04 00:02:11;;;;;;;43.17;25.13;;;1.20;70.70;;;;;;5107090;28;20056;-69
2022/12/04 00:04:37;;;;;;;50.07;27.33;;;1.30;70.90;;;;;;5114467;27;20490;-69
2022/12/04 00:07:02;;;;;;;47.53;26.60;;;1.40;71.00;;;;;;5118579;27;20039;-70
2022/12/04 00:09:28;;;;;;;48.10;27.00;;;1.20;70.70;;;;;;5101842;27;20028;-69
2022/12/04 00:11:54;;;;;;;51.33;27.60;;;1.20;70.70;;;;;;5117992;27;20036;-69
2022/12/04 00:14:20;;;;;;;54.97;30.00;;;1.30;70.80;;;;;;5117966;27;20035;-70
2022/12/04 00:16:45;;;;;;;50.47;27.37;;;1.30;70.80;;;;;;5117757;27;20043;-70
2022/12/04 00:19:11;;;;;;;52.40;27.47;;;1.20;70.70;;;;;;5101191;27;20105;-69
2022/12/04 00:21:37;;;;;;;51.13;27.63;;;1.30;70.60;;;;;;5118078;27;20078;-69
2022/12/04 00:24:03;;;;;;;52.63;28.17;;;1.20;70.60;;;;;;5118260;27;20046;-69
2022/12/04 00:26:30;;;;;;;47.60;25.70;;;1.20;70.60;;;;;;5118124;27;20035;-69
2022/12/04 00:28:56;;;;;;;48.93;26.70;;;1.20;70.50;;;;;;5117697;27;20120;-69
2022/12/04 00:31:26;;;;;;;50.37;26.90;;;1.30;70.70;;;;;;5117937;27;20071;-69
2022/12/04 00:33:53;;;;;;;48.97;27.17;;;1.30;70.70;;;;;;5118096;27;20359;-69
2022/12/04 00:36:21;;;;;;;50.43;27.53;;;1.20;70.70;;;;;;5117294;27;20034;-69
2022/12/04 00:38:47;;;;;;;50.37;27.27;;;1.30;70.80;;;;;;5118031;27;20034;-69
2022/12/04 00:41:16;;;;;;;48.13;26.83;;;1.30;70.90;;;;;;5117632;27;20038;-69
2022/12/04 00:43:42;;;;;;;54.97;28.53;;;1.30;71.00;;;;;;5100937;27;20509;-69
2022/12/04 00:46:08;;;;;;;46.23;26.77;;;1.20;70.90;;;;;;5117444;27;20042;-69
2022/12/04 00:48:34;;;;;;;52.43;27.97;;;1.30;71.00;;;;;;5117629;27;20118;-69
2022/12/04 00:51:04;;;;;;;49.13;27.03;;;1.30;71.00;;;;;;5097539;28;20118;-69
2022/12/04 00:53:30;;;;;;;49.03;27.07;;;1.30;71.10;;;;;;5097348;28;20043;-68
2022/12/04 00:55:56;;;;;;;53.33;28.23;;;1.30;71.20;;;;;;5113822;27;20043;-69
2022/12/04 00:58:21;;;;;;;51.87;28.17;;;1.30;71.30;;;;;;5100506;27;20081;-69
2022/12/04 01:00:47;;;;;;;48.53;26.90;;;1.30;71.40;;;;;;5117398;27;20377;-76
2022/12/04 01:03:13;;;;;;;56.37;27.77;;;1.30;71.40;;;;;;5117015;27;20062;-77
2022/12/04 01:05:44;;;;;;;51.70;29.33;;;1.30;71.40;;;;;;5099968;27;20043;-76
2022/12/04 01:08:11;;;;;;;52.70;29.10;;;1.30;71.50;;;;;;5117138;27;20035;-77
2022/12/04 01:10:40;;;;;;;52.53;28.17;;;1.30;71.50;;;;;;5117692;27;20505;-77
2022/12/04 01:13:07;;;;;;;51.80;27.67;;;1.30;71.60;;;;;;5117462;27;20552;-76
2022/12/04 01:15:36;;;;;;;53.57;26.80;;;1.30;71.60;;;;;;5117310;27;20521;-76
2022/12/04 01:18:02;;;;;;;51.77;28.13;;;1.30;71.60;;;;;;5102069;27;20486;-76
2022/12/04 01:20:28;;;;;;;53.30;27.93;;;1.30;71.60;;;;;;5117243;27;20096;-76
2022/12/04 01:22:54;;;;;;;52.70;28.03;;;1.30;71.60;;;;;;5099200;27;20047;-76
2022/12/04 01:25:19;;;;;;;53.50;28.40;;;1.30;71.70;;;;;;5100115;27;20035;-76
2022/12/04 01:27:45;;;;;;;48.43;26.40;;;1.30;71.60;;;;;;5117182;27;20035;-76
2022/12/04 01:30:11;;;;;;;52.77;27.07;;;1.30;71.70;;;;;;5116792;27;20039;-76
2022/12/04 01:32:37;;;;;;;54.07;27.93;;;1.30;71.70;;;;;;5096453;28;20131;-76
2022/12/04 01:35:03;;;;;;;49.77;27.80;;;1.30;71.80;;;;;;5110468;27;20123;-76
2022/12/04 01:37:32;;;;;;;51.37;27.30;;;1.30;71.80;;;;;;5117063;27;20035;-76
2022/12/04 01:39:57;;;;;;;51.27;25.63;;;1.30;71.80;;;;;;5100107;27;20042;-76
2022/12/04 01:42:24;;;;;;;54.90;27.67;;;1.30;71.90;;;;;;5116324;27;20043;-76
2022/12/04 01:45:27;;;;;;;50.70;28.73;;;1.30;72.00;;;;;;5116364;27;20027;-76
2022/12/04 01:47:56;;;;;;;55.33;27.70;;;1.40;71.90;;;;;;5099569;27;20031;-76
2022/12/04 01:50:23;;;;;;;53.37;28.43;;;1.30;71.80;;;;;;5099179;27;20035;-76
2022/12/04 01:52:49;;;;;;;53.67;28.20;;;1.30;71.90;;;;;;5116542;27;20121;-76
2022/12/04 01:55:15;;;;;;;55.60;28.70;;;1.30;71.90;;;;;;5116060;27;20164;-76
2022/12/04 01:57:41;;;;;;;50.27;28.27;;;1.30;71.80;;;;;;5099221;27;20046;-77
2022/12/04 02:00:13;;;;;;;54.97;28.20;;;1.30;71.80;;;;;;5099469;27;20047;-76
2022/12/04 02:02:42;;;;;;;53.90;28.73;;;1.30;71.80;;;;;;5115775;27;20055;-76
2022/12/04 02:05:10;;;;;;;52.23;28.30;;;1.30;71.80;;;;;;5107972;27;20460;-76
2022/12/04 02:07:38;;;;;;;56.13;30.03;;;1.30;71.90;;;;;;5115874;27;20054;-76
2022/12/04 02:10:07;;;;;;;52.90;29.07;;;1.30;71.90;;;;;;5116121;27;20035;-76
2022/12/04 02:12:45;;;;;;;54.10;27.87;;;1.30;71.90;;;;;;5115803;27;20398;-76
2022/12/04 02:15:18;;;;;;;56.53;30.07;;;1.30;72.00;;;;;;5115464;27;20078;-76
2022/12/04 02:18:02;;;;;;;48.73;26.93;;;1.30;71.90;;;;;;5098957;27;20088;-76
2022/12/04 02:20:37;;;;;;;51.53;27.75;;;1.30;72.00;;;;;;5116076;27;20118;-76
2022/12/04 02:23:09;;;;;;;;;;;1.30;71.90;;;;;;5098916;27;20482;-76
2022/12/04 02:25:52;;;;;;;55.23;29.07;;;1.30;71.80;;;;;;5115556;27;19922;-76
2022/12/04 02:28:37;;;;;;;53.43;30.40;;;1.30;71.90;;;;;;5116141;27;20123;-76
2022/12/04 02:31:06;;;;;;;54.50;30.30;;;1.30;72.00;;;;;;5115599;27;20043;-76
2022/12/04 02:33:44;;;;;;;52.47;27.50;;;1.30;72.00;;;;;;5115370;27;20058;-76
2022/12/04 02:36:21;;;;;;;53.60;28.70;;;1.20;72.00;;;;;;5115768;27;20043;-76
2022/12/04 02:38:58;;;;;;;53.77;29.43;;;1.30;72.20;;;;;;5115696;27;20096;-75
2022/12/04 02:41:49;;;;;;;48.60;28.13;;;1.30;72.20;;;;;;5115656;27;20100;-76
2022/12/04 02:44:23;;;;;;;53.07;29.77;;;1.30;72.20;;;;;;5115319;27;20145;-68
2022/12/04 02:46:55;;;;;;;57.70;30.58;;;1.30;72.20;;;;;;5115939;27;20382;-68
2022/12/04 02:49:27;;;;;;;54.77;29.93;;;1.30;72.20;;;;;;5115455;27;20039;-69
2022/12/04 02:51:54;;;;;;;57.77;30.03;;;1.30;72.20;;;;;;5115631;28;20050;-68
2022/12/04 02:54:36;;;;;;;52.27;29.83;;;1.30;72.10;;;;;;5115371;28;20058;-68
2022/12/04 02:57:05;;;;;;;55.67;29.63;;;1.20;72.00;;;;;;5098051;27;20043;-69
2022/12/04 02:59:43;;;;;;;50.57;28.60;;;1.20;72.10;;;;;;5115379;28;20122;-68
2022/12/04 03:02:14;;;;;;;52.40;29.20;;;1.30;72.30;;;;;;5098127;28;20051;-68
2022/12/04 03:04:41;;;;;;;54.10;29.27;;;1.30;72.30;;;;;;5115131;28;20042;-68
2022/12/04 03:07:15;;;;;;;56.67;29.90;;;1.20;72.30;;;;;;5114593;28;20041;-68
2022/12/04 03:09:58;;;;;;;53.93;29.27;;;1.20;72.30;;;;;;5115129;28;20169;-68
2022/12/04 03:12:26;;;;;;;54.70;29.70;;;1.20;72.40;;;;;;5115203;28;20131;-68
2022/12/04 03:15:07;;;;;;;57.97;29.60;;;1.20;72.50;;;;;;5097416;28;20108;-68
2022/12/04 03:17:46;;;;;;;52.70;28.60;;;1.20;72.50;;;;;;5115301;28;20046;-68
2022/12/04 03:20:14;;;;;;;56.27;32.27;;;1.20;72.50;;;;;;5098318;28;20409;-68
2022/12/04 03:22:42;;;;;;;56.67;30.63;;;1.20;72.60;;;;;;5115168;28;20042;-68
2022/12/04 03:25:09;;;;;;;56.43;30.90;;;1.20;72.70;;;;;;5118572;27;20502;-68
2022/12/04 03:27:59;;;;;;;59.43;30.83;;;1.10;72.60;;;;;;5100274;27;20035;-68
2022/12/04 03:30:25;;;;;;;56.43;31.77;;;1.20;72.70;;;;;;5119039;27;20114;-68
2022/12/04 03:33:11;;;;;;;56.63;31.27;;;1.20;72.80;;;;;;5119102;27;20043;-68
2022/12/04 03:35:48;;;;;;;59.20;31.80;;;1.20;72.80;;;;;;5081847;28;20048;-68
2022/12/04 03:38:34;;;;;;;56.83;30.53;;;1.10;72.90;;;;;;5117594;27;20047;-68
2022/12/04 03:41:29;;;;;;;57.73;30.53;;;1.10;73.20;;;;;;5118957;27;20122;-68
2022/12/04 03:44:03;;;;;;;55.58;30.23;;;1.10;73.10;;;;;;5133283;27;20047;-68
2022/12/04 03:46:38;;;;;;;43.85;23.33;;;1.10;73.20;;;;;;5118609;27;20042;-68
2022/12/04 03:49:18;;;;;;;56.13;31.17;;;1.10;73.20;;;;;;5118876;27;20058;-69
2022/12/04 03:51:58;;;;;;;57.83;30.73;;;1.10;73.40;;;;;;5114866;27;20042;-69
2022/12/04 03:54:30;;;;;;;54.30;31.60;;;1.10;73.40;;;;;;5101538;27;20038;-68
2022/12/04 03:57:13;;;;;;;54.53;29.93;;;1.10;73.40;;;;;;5119146;27;20117;-69
2022/12/04 03:59:57;;;;;;;60.27;30.80;;;1.20;73.50;;;;;;5118722;27;20035;-76
2022/12/04 04:02:27;;;;;;;54.95;29.63;;;1.10;73.50;;;;;;5101204;27;20050;-76
2022/12/04 04:04:57;;;;;;;58.63;31.73;;;1.80;74.00;;;;;;5117996;27;20058;-76
2022/12/04 04:07:39;;;;;;;55.40;30.67;;;1.10;73.60;;;;;;5119031;27;20093;-76
2022/12/04 04:10:13;;;;;;;53.40;30.27;;;1.20;73.70;;;;;;5101696;27;20127;-75
2022/12/04 04:24:12;;;;;;;64.10;32.22;;;1.10;73.60;;;;;;5118533;27;20489;-76
2022/12/04 04:26:48;;;;;;;56.80;30.25;;;1.10;73.70;;;;;;5118457;27;20069;-76
2022/12/04 04:29:14;;;;;;;58.80;30.90;;;1.10;73.70;;;;;;5118636;27;20408;-76
2022/12/04 04:32:18;;;;;;;60.67;31.10;;;1.20;73.80;;;;;;5117485;27;20027;-68
2022/12/04 04:35:02;;;;;;;57.60;31.47;;;1.10;73.80;;;;;;5028997;28;20034;-76
2022/12/04 04:37:54;;;;;;;55.70;31.07;;;1.10;73.80;;;;;;4996871;28;20084;-76
2022/12/04 04:40:55;;;;;;;57.00;30.77;;;1.10;73.90;;;;;;5086458;27;20120;-76
2022/12/04 04:43:31;;;;;;;59.00;31.37;;;1.10;73.90;;;;;;5095027;27;20130;-76
2022/12/04 04:46:02;;;;;;;56.57;30.43;;;1.10;74.00;;;;;;5117598;27;20031;-76
2022/12/04 04:48:52;;;;;;;54.40;29.20;;;1.20;74.10;;;;;;5118143;27;20039;-68
2022/12/04 04:51:19;;;;;;;56.63;30.53;;;1.10;74.00;;;;;;5101053;27;20039;-76
2022/12/04 04:53:52;;;;;;;62.20;32.53;;;1.10;74.00;;;;;;5118194;27;20035;-76
2022/12/04 04:56:19;;;;;;;62.67;33.13;;;1.10;74.00;;;;;;5101242;27;20046;-75
2022/12/04 04:58:45;;;;;;;61.80;32.53;;;1.10;74.10;;;;;;5118123;27;20031;-76
2022/12/04 05:01:14;;;;;;;58.60;30.60;;;1.20;74.10;;;;;;5118433;27;20081;-68
2022/12/04 05:03:40;;;;;;;60.17;33.43;;;1.20;74.20;;;;;;5117236;27;20421;-67
2022/12/04 05:06:06;;;;;;;59.40;32.97;;;1.10;74.10;;;;;;5117408;27;20035;-75
2022/12/04 05:08:32;;;;;;;57.50;32.13;;;1.10;74.00;;;;;;5100585;27;20088;-76
2022/12/04 05:10:58;;;;;;;57.63;34.07;;;1.10;74.00;;;;;;5117362;27;20077;-77
2022/12/04 05:13:24;;;;;;;55.87;31.43;;;1.10;74.40;;;;;;5100375;27;20080;-76
2022/12/04 05:16:04;;;;;;;61.83;33.53;;;1.10;74.00;;;;;;5116935;27;20047;-68
2022/12/04 05:18:32;;;;;;;65.17;32.43;;;1.10;74.10;;;;;;5117543;27;20443;-76
2022/12/04 05:20:57;;;;;;;62.80;33.40;;;1.10;74.00;;;;;;5100311;27;20095;-76
2022/12/04 05:23:23;;;;;;;60.20;31.80;;;1.10;73.90;;;;;;5099928;27;20039;-68
2022/12/04 05:25:49;;;;;;;63.03;33.27;;;1.10;73.90;;;;;;5116960;27;20555;-68
2022/12/04 05:28:15;;;;;;;57.40;31.47;;;1.10;73.90;;;;;;5100163;27;20043;-69
2022/12/04 05:30:41;;;;;;;62.10;32.47;;;1.10;74.00;;;;;;5116507;27;20474;-69
2022/12/04 05:33:08;;;;;;;66.17;33.43;;;1.10;74.00;;;;;;5116560;27;20047;-67
2022/12/04 05:35:34;;;;;;;63.17;34.23;;;1.10;74.00;;;;;;5130582;27;20039;-69
2022/12/04 05:37:59;;;;;;;60.10;31.87;;;1.10;74.10;;;;;;5098473;27;20077;-76
2022/12/04 05:40:25;;;;;;;59.97;32.77;;;1.10;74.00;;;;;;5099898;27;20047;-69
2022/12/04 05:42:50;;;;;;;60.23;33.60;;;1.10;74.10;;;;;;5116355;27;20047;-69
2022/12/04 05:45:16;;;;;;;59.87;32.37;;;1.10;74.00;;;;;;5099918;27;20462;-69
2022/12/04 05:47:43;;;;;;;61.80;33.53;;;1.10;74.00;;;;;;5115560;27;20053;-76
2022/12/04 05:50:11;;;;;;;56.87;30.53;;;1.10;73.90;;;;;;5099777;27;20114;-69
2022/12/04 05:52:37;;;;;;;60.83;33.53;;;1.10;74.00;;;;;;5116400;27;20043;-69
2022/12/04 05:55:03;;;;;;;64.27;33.73;;;1.00;73.90;;;;;;5116388;27;20043;-76
2022/12/04 05:57:28;;;;;;;55.73;30.67;;;1.10;74.00;;;;;;5116523;27;20402;-69
2022/12/04 05:59:54;;;;;;;59.43;32.73;;;1.10;74.00;;;;;;5116421;27;20042;-69
2022/12/04 06:02:20;;;;;;;60.80;32.67;;;1.10;74.00;;;;;;5098537;27;20059;-69
2022/12/04 06:04:46;;;;;;;62.90;32.93;;;1.10;74.10;;;;;;5100100;27;20073;-69
2022/12/04 06:07:11;;;;;;;65.40;35.00;;;1.00;74.10;;;;;;5099540;27;20385;-69
2022/12/04 06:09:37;;;;;;;59.40;33.23;;;1.10;74.10;;;;;;5095792;28;20387;-69
2022/12/04 06:12:03;;;;;;;62.03;33.60;;;1.00;74.00;;;;;;5095731;28;20051;-69
2022/12/04 06:14:29;;;;;;;56.73;31.37;;;1.00;74.10;;;;;;5110498;27;20043;-77
2022/12/04 06:16:55;;;;;;;59.60;31.53;;;1.00;74.10;;;;;;5098959;27;20119;-77
2022/12/04 06:19:21;;;;;;;62.57;35.33;;;1.00;74.10;;;;;;5116228;27;20050;-77
2022/12/04 06:21:50;;;;;;;59.87;31.77;;;1.00;74.20;;;;;;5116038;27;20043;-77
2022/12/04 06:24:20;;;;;;;61.03;32.63;;;1.00;74.10;;;;;;5115407;27;20031;-76
2022/12/04 06:26:46;;;;;;;55.00;31.03;;;1.00;74.10;;;;;;5115828;27;20505;-77
2022/12/04 06:29:13;;;;;;;54.57;30.77;;;1.00;74.10;;;;;;5116222;27;20470;-76
2022/12/04 06:31:39;;;;;;;62.23;32.00;;;1.00;74.20;;;;;;5115788;27;20027;-77
2022/12/04 06:34:05;;;;;;;57.97;31.07;;;1.00;74.10;;;;;;5115454;27;20497;-76
2022/12/04 06:36:31;;;;;;;56.27;31.40;;;1.00;74.20;;;;;;5116010;27;20118;-77
2022/12/04 06:38:57;;;;;;;54.27;30.07;;;1.10;74.20;;;;;;5098634;27;20551;-77
2022/12/04 06:41:24;;;;;;;55.37;31.30;;;1.10;74.30;;;;;;5115723;27;20087;-77
2022/12/04 06:43:51;;;;;;;56.10;31.07;;;1.10;74.30;;;;;;5103172;27;20454;-77
2022/12/04 06:46:22;;;;;;;60.33;33.20;;;1.00;74.30;;;;;;5098374;27;20099;-76
2022/12/04 06:48:48;;;;;;;56.03;31.13;;;1.00;74.40;;;;;;5115334;27;20047;-68
2022/12/04 06:51:20;;;;;;;53.40;30.40;;;1.00;74.40;;;;;;5115451;27;20058;-68
2022/12/04 06:53:46;;;;;;;55.73;29.47;;;1.00;74.50;;;;;;5114991;28;20478;-69
2022/12/04 06:56:17;;;;;;;58.53;29.83;;;1.00;74.60;;;;;;5115353;27;20114;-68
2022/12/04 06:58:44;;;;;;;56.93;30.03;;;1.10;74.60;;;;;;5098197;28;20043;-69
2022/12/04 07:01:13;;;;;;;57.37;30.47;;;1.00;74.50;;;;;;5098576;27;20031;-68
2022/12/04 07:03:40;;;;;;;62.20;33.47;;;1.00;74.60;;;;;;5114039;27;20055;-68
2022/12/04 07:06:21;;;;;;;57.37;31.70;;;1.00;74.60;;;;;;5115439;28;20047;-69
2022/12/04 07:08:53;;;;;;;55.47;29.57;;;1.10;74.80;;;;;;5114957;28;20043;-70
2022/12/04 07:11:20;;;;;;;57.13;31.53;;;1.10;74.70;;;;;;5115382;28;20038;-70
2022/12/04 07:13:46;;;;;;;55.17;28.90;;;1.10;74.80;;;;;;5114998;28;20168;-77
2022/12/04 07:16:14;;;;;;;57.13;31.57;;;1.10;74.70;;;;;;5098482;28;20038;-77
2022/12/04 07:18:40;;;;;;;59.73;30.73;;;1.10;74.70;;;;;;5115148;28;20050;-77
2022/12/04 07:21:08;;;;;;;57.73;30.40;;;1.10;74.80;;;;;;5114973;28;20494;-77
2022/12/04 07:23:34;;;;;;;54.33;30.57;;;1.10;74.80;;;;;;5114874;28;20119;-77
2022/12/04 07:26:05;;;;;;;56.23;29.43;;;1.10;74.80;;;;;;5115302;28;20039;-77
2022/12/04 07:28:31;;;;;;;53.97;29.07;;;1.10;74.90;;;;;;5133081;28;20043;-77
2022/12/04 07:30:57;;;;;;;52.00;30.23;;;1.10;74.90;;;;;;5094570;28;20031;-77
2022/12/04 07:33:23;;;;;;;56.13;28.10;;;1.10;74.90;;;;;;5080795;28;20097;-77
2022/12/04 07:35:56;;;;;;;55.23;30.60;;;1.10;74.80;;;;;;5115087;28;20443;-77
2022/12/04 07:38:22;;;;;;;51.10;28.87;;;1.10;74.80;;;;;;5115235;28;20039;-75
2022/12/04 07:40:47;;;;;;;56.07;29.53;;;1.10;74.80;;;;;;5115252;28;20038;-76
2022/12/04 07:43:13;;;;;;;53.33;29.33;;;1.20;74.90;;;;;;5114513;28;20039;-75
2022/12/04 07:45:39;;;;;;;53.40;28.70;;;1.10;74.90;;;;;;5098134;28;20118;-76
2022/12/04 07:48:04;;;;;;;53.17;29.40;;;1.10;75.00;;;;;;5115167;28;20058;-76
2022/12/04 07:50:30;;;;;;;54.03;29.70;;;1.50;75.30;;;;;;5114369;28;20066;-76
2022/12/04 07:52:56;;;;;;;53.77;28.73;;;1.10;75.30;;;;;;5114608;28;20050;-76
2022/12/04 07:55:21;;;;;;;51.57;28.77;;;1.10;75.30;;;;;;5095383;28;20043;-76
2022/12/04 07:57:47;;;;;;;56.30;29.20;;;1.10;75.30;;;;;;5080821;28;20091;-76
2022/12/04 08:00:13;;;;;;;56.67;29.73;;;1.10;75.50;;;;;;5118073;27;20071;-76
2022/12/04 08:02:39;;;;;;;56.30;31.13;;;1.10;75.50;;;;;;5134504;27;20047;-76
2022/12/04 08:05:05;;;;;;;54.67;29.67;;;1.10;75.60;;;;;;5097518;28;20047;-76
2022/12/04 08:07:31;;;;;;;50.57;28.63;;;1.10;75.80;;;;;;5114596;28;20071;-76
2022/12/04 08:09:57;;;;;;;57.60;29.60;;;1.30;76.10;;;;;;5116815;27;20405;-76
2022/12/04 08:12:22;;;;;;;53.80;30.17;;;1.10;76.00;;;;;;5118170;27;20039;-76
2022/12/04 08:14:48;;;;;;;66.37;32.90;;;1.10;76.10;;;;;;5101765;27;20192;-76
2022/12/04 08:17:14;;;;;;;56.10;30.07;;;1.10;76.20;;;;;;5119100;27;20107;-77
2022/12/04 08:19:40;;;;;;;57.03;29.50;;;1.10;76.40;;;;;;5102717;27;20043;-76
2022/12/04 08:22:05;;;;;;;59.50;30.90;;;1.10;76.60;;;;;;5101801;27;20679;-77
2022/12/04 08:24:31;;;;;;;56.70;28.87;;;1.10;76.60;;;;;;5114591;27;20065;-76
2022/12/04 08:26:57;;;;;;;54.57;30.20;;;1.10;76.60;;;;;;5081102;28;20044;-76
2022/12/04 08:29:23;;;;;;;56.87;29.87;;;1.10;76.70;;;;;;5097807;28;20449;-76
2022/12/04 08:31:48;;;;;;;58.33;30.67;;;1.10;76.80;;;;;;5093999;27;20043;-68
2022/12/04 08:34:15;;;;;;;61.57;30.87;;;1.10;76.90;;;;;;5117905;27;20122;-68
2022/12/04 08:36:40;;;;;;;57.37;28.20;;;1.10;77.00;;;;;;5118046;27;20046;-76
2022/12/04 08:39:07;;;;;;;59.73;31.13;;;1.10;77.10;;;;;;5117489;27;20398;-77
2022/12/04 08:41:33;;;;;;;59.47;30.03;;;1.10;77.20;;;;;;5099318;27;20039;-76
2022/12/04 08:43:59;;;;;;;60.53;30.10;;;1.10;77.30;;;;;;5100175;27;20046;-76
2022/12/04 08:46:26;;;;;;;58.27;31.07;;;1.10;77.30;;;;;;5113765;27;20092;-77
2022/12/04 08:48:53;;;;;;;59.53;31.30;;;1.10;77.40;;;;;;5117095;27;20054;-77
2022/12/04 08:51:22;;;;;;;61.77;30.97;;;1.10;77.50;;;;;;5101697;27;20035;-68
2022/12/04 08:53:51;;;;;;;56.53;29.33;;;1.10;77.50;;;;;;5116673;27;20042;-68
2022/12/04 08:56:17;;;;;;;60.20;30.23;;;1.10;77.50;;;;;;5117647;27;20038;-69
2022/12/04 08:58:42;;;;;;;62.10;30.30;;;1.10;77.60;;;;;;5100340;27;20510;-69
2022/12/04 09:01:10;;;;;;;56.73;30.10;;;1.10;77.70;;;;;;5117154;27;20103;-77
2022/12/04 09:03:36;;;;;;;56.93;30.13;;;1.10;77.90;;;;;;5117124;27;20395;-69
2022/12/04 09:06:03;;;;;;;55.73;30.33;;;1.10;77.90;;;;;;5117348;27;20049;-69
2022/12/04 09:08:30;;;;;;;56.10;30.07;;;1.10;78.10;;;;;;5100095;27;20043;-69
2022/12/04 09:11:05;;;;;;;55.20;29.63;;;1.20;78.10;;;;;;5117202;27;20043;-69
2022/12/04 09:13:32;;;;;;;58.10;29.30;;;1.20;78.10;;;;;;5116921;27;20038;-68
2022/12/04 09:15:58;;;;;;;59.17;32.27;;;1.20;78.10;;;;;;5114664;27;20046;-69
2022/12/04 09:18:23;;;;;;;56.77;29.73;;;1.20;78.20;;;;;;5094117;27;20363;-69
2022/12/04 09:20:57;;;;;;;55.97;29.50;;;1.20;78.30;;;;;;5093903;27;20064;-69
2022/12/04 09:23:24;;;;;;;56.73;29.93;;;1.20;78.40;;;;;;5111005;27;20035;-72
2022/12/04 09:25:50;;;;;;;59.60;31.20;;;1.20;78.40;;;;;;5094392;27;20481;-72
2022/12/04 09:28:16;;;;;;;60.47;30.50;;;1.20;78.30;;;;;;5094348;27;20122;-71
2022/12/04 09:30:41;;;;;;;57.60;28.83;;;1.30;78.50;;;;;;5094167;27;20043;-70
2022/12/04 09:33:07;;;;;;;58.07;31.30;;;1.30;78.50;;;;;;5093350;27;20046;-69
2022/12/04 09:35:33;;;;;;;56.40;30.57;;;1.30;78.60;;;;;;5093723;27;20046;-70
2022/12/04 09:37:59;;;;;;;60.17;30.27;;;1.30;78.60;;;;;;5097861;27;20050;-78
2022/12/04 09:40:28;;;;;;;62.03;32.47;;;1.30;78.60;;;;;;5113384;27;20390;-71
2022/12/04 09:43:30;;;;;;;59.27;30.63;;;1.30;78.80;;;;;;5116153;27;20039;-70
2022/12/04 09:46:04;;;;;;;60.00;30.63;;;1.40;78.80;;;;;;5113871;27;20113;-69
2022/12/04 09:48:34;;;;;;;66.28;32.60;;;1.40;78.80;;;;;;5115229;27;20039;-70
2022/12/04 09:51:01;;;;;;;61.23;32.53;;;1.30;78.70;;;;;;5099126;27;20035;-70
2022/12/04 09:53:41;;;;;;;67.33;34.50;;;1.40;78.80;;;;;;5098787;27;20070;-70
2022/12/04 09:56:12;;;;;;;57.83;31.07;;;1.40;79.00;;;;;;5113713;27;20355;-70
2022/12/04 09:58:51;;;;;;;63.77;32.73;;;1.40;78.90;;;;;;5111046;27;20099;-70
2022/12/04 10:01:31;;;;;;;59.80;30.00;;;1.60;79.10;;;;;;5094227;27;20081;-71
2022/12/04 10:03:58;;;;;;;67.53;33.90;;;1.50;79.10;;;;;;5096145;27;20051;-70
2022/12/04 10:06:28;;;;;;;61.43;31.07;;;1.50;79.00;;;;;;5114200;27;20118;-69
2022/12/04 10:09:10;;;;;;;63.43;32.97;;;1.50;79.00;;;;;;5115409;27;20095;-70
2022/12/04 10:11:42;;;;;;;66.77;32.87;;;1.50;79.10;;;;;;5115905;27;20035;-69
2022/12/04 10:14:47;;;;;;;63.40;33.00;;;1.50;79.00;;;;;;5099399;27;20078;-78
2022/12/04 10:17:47;;;;;;;;;;;1.50;79.10;;;;;;5099352;27;20043;-78
2022/12/04 10:20:18;;;;;;;65.00;31.30;;;1.50;79.00;;;;;;5055707;27;20056;-70
2022/12/04 10:23:26;;;;;;;59.50;31.83;;;1.60;79.10;;;;;;5098718;27;20517;-70
2022/12/04 10:25:54;;;;;;;61.67;31.63;;;1.60;79.00;;;;;;5103089;27;20055;-70
2022/12/04 10:28:42;;;;;;;59.00;30.50;;;1.60;79.60;;;;;;5115951;27;20091;-70
2022/12/04 10:31:14;;;;;;;61.53;31.63;;;1.60;79.10;;;;;;5115750;27;20070;-68
2022/12/04 10:34:01;;;;;;;60.63;32.10;;;1.60;79.10;;;;;;5115339;27;20039;-68
2022/12/04 10:36:32;;;;;;;58.73;30.97;;;1.70;79.20;;;;;;5098549;27;20039;-68
2022/12/04 10:39:02;;;;;;;58.70;30.57;;;1.70;79.20;;;;;;5115528;27;20035;-68
2022/12/04 10:42:00;;;;;;;61.33;32.83;;;1.70;79.20;;;;;;5098678;27;20099;-68
2022/12/04 10:44:26;;;;;;;57.00;30.70;;;1.70;79.10;;;;;;5115441;27;20071;-68
2022/12/04 10:46:59;;;;;;;57.30;30.00;;;1.70;79.10;;;;;;5098609;27;20081;-69
2022/12/04 10:49:43;;;;;;;58.77;30.80;;;1.90;79.20;;;;;;5098254;27;20081;-70
2022/12/04 10:52:12;;;;;;;51.07;28.33;;;1.80;79.10;;;;;;5115605;27;20088;-76
2022/12/04 10:54:47;;;;;;;59.27;30.13;;;1.80;79.50;;;;;;5115889;28;20049;-77
2022/12/04 10:57:13;;;;;;;;;;;1.80;79.20;;;;;;5115982;28;20482;-77
2022/12/04 10:59:47;;;;;;;51.47;27.17;;;1.80;79.00;;;;;;5115818;28;19922;-77
2022/12/04 11:02:19;;;;;;;;;;;1.90;79.10;;;;;;5115555;27;20039;-76
2022/12/04 11:04:57;;;;;;;52.60;28.30;;;1.90;78.80;;;;;;5098429;28;20328;-77
2022/12/04 11:07:29;;;;;;;52.33;28.53;;;1.90;78.90;;;;;;5098705;28;20035;-77
2022/12/04 11:10:02;;;;;;;49.47;26.73;;;1.90;78.70;;;;;;5116089;28;20382;-77
2022/12/04 11:12:29;;;;;;;50.43;28.33;;;1.90;78.70;;;;;;5098569;28;20130;-69
2022/12/04 11:15:05;;;;;;;48.00;28.50;;;2.00;78.60;;;;;;5115355;28;20046;-70
2022/12/04 11:17:31;;;;;;;47.47;27.83;;;2.00;78.60;;;;;;5099634;28;20122;-79
2022/12/04 11:20:05;;;;;;;47.90;26.60;;;2.00;78.50;;;;;;5115375;28;20126;-70
2022/12/04 11:22:31;;;;;;;37.50;21.80;;;2.00;78.50;;;;;;5115332;28;20031;-71
2022/12/04 11:24:58;;;;;;;45.03;25.13;;;2.10;78.50;;;;;;5115270;28;20419;-68
2022/12/04 11:27:33;;;;;;;48.30;26.37;;;2.10;78.30;;;;;;5115262;28;20071;-79
2022/12/04 11:30:09;;;;;;;43.73;25.37;;;2.10;78.30;;;;;;5115213;28;20078;-77
2022/12/04 11:32:35;;;;;;;43.90;26.27;;;2.20;78.10;;;;;;5115218;28;20494;-78
2022/12/04 11:35:22;;;;;;;47.50;26.70;;;2.20;78.00;;;;;;5115342;28;20050;-78
2022/12/04 11:37:53;;;;;;;42.70;24.27;;;2.20;78.00;;;;;;5115473;28;20051;-70
2022/12/04 11:40:19;;;;;;;47.17;24.70;;;2.20;77.90;;;;;;5133486;28;20517;-70
2022/12/04 11:43:12;;;;;;;42.17;23.50;;;2.30;77.90;;;;;;5114791;28;20074;-69
2022/12/04 11:45:38;;;;;;;42.60;23.33;;;2.30;77.90;;;;;;5118246;27;20400;-70
2022/12/04 11:48:14;;;;;;;42.73;25.63;;;2.30;77.80;;;;;;5102038;27;20482;-70
2022/12/04 11:50:53;;;;;;;37.53;23.17;;;2.30;77.80;;;;;;5119000;27;20035;-71
2022/12/04 11:53:58;;;;;;;39.77;23.77;;;2.40;77.80;;;;;;5118909;27;20075;-70
2022/12/04 11:56:24;;;;;;;37.85;21.15;;;2.40;77.60;;;;;;5118986;27;20043;-70
2022/12/04 11:59:14;;;;;;;38.10;22.17;;;2.40;77.40;;;;;;5119020;27;20051;-70
2022/12/04 12:02:04;;;;;;;35.57;20.97;;;2.50;77.20;;;;;;5101638;27;20126;-70
2022/12/04 12:04:52;;;;;;;35.40;20.87;;;2.50;77.10;;;;;;5118507;27;20047;-78
2022/12/04 12:07:36;;;;;;;39.20;21.83;;;2.50;77.00;;;;;;5119017;27;20039;-78
2022/12/04 12:10:30;;;;;;;32.47;19.98;;;2.60;76.90;;;;;;5118818;27;20039;-78
2022/12/04 12:13:07;;;;;;;33.57;19.80;;;2.60;76.70;;;;;;5118454;27;20043;-77
2022/12/04 12:15:57;;;;;;;32.80;20.27;;;2.60;76.60;;;;;;5118479;27;20077;-69
2022/12/04 12:18:42;;;;;;;33.00;20.10;;;2.60;76.30;;;;;;5118603;27;20043;-70
2022/12/04 12:21:23;;;;;;;27.45;17.30;;;2.60;76.20;;;;;;5101630;27;20043;-77
2022/12/04 12:24:25;;;;;;;32.37;19.43;;;2.70;76.00;;;;;;5118734;27;20065;-77
2022/12/04 12:26:50;;;;;;;26.93;15.87;;;2.70;75.40;;;;;;5093816;27;20075;-78
2022/12/04 12:29:53;;;;;;;26.23;16.90;;;2.70;75.60;;;;;;5118478;27;20419;-78
2022/12/04 12:32:38;;;;;;;25.23;15.53;;;2.80;75.10;;;;;;5118308;27;20087;-78
2022/12/04 12:35:33;;;;;;;26.98;17.45;;;2.80;74.90;;;;;;5118481;27;20031;-78
2022/12/04 12:38:05;;;;;;;25.47;16.37;;;3.00;74.50;;;;;;5090292;27;20058;-78
2022/12/04 12:40:39;;;;;;;28.23;16.80;;;2.90;74.30;;;;;;5118399;27;20082;-78
2022/12/04 12:43:33;;;;;;;27.90;16.67;;;2.90;74.00;;;;;;5118134;27;20054;-77
2022/12/04 12:46:11;;;;;;;28.00;16.87;;;2.90;74.00;;;;;;5092847;27;20047;-77
2022/12/04 12:49:03;;;;;;;31.13;17.40;;;2.90;74.10;;;;;;5118239;27;20427;-77
2022/12/04 12:51:28;;;;;;;25.83;15.43;;;3.00;74.00;;;;;;5131380;27;20043;-78
2022/12/04 12:54:03;;;;;;;27.90;16.37;;;3.00;74.20;;;;;;5118118;27;20058;-78
2022/12/04 12:56:32;;;;;;;;;;;3.00;74.20;;;;;;5100953;27;20633;-78
2022/12/04 12:59:02;;;;;;;25.67;15.57;;;3.00;74.00;;;;;;5100713;27;19927;-78
2022/12/04 13:01:49;;;;;;;28.73;16.47;;;3.00;74.30;;;;;;5117914;27;20439;-78
2022/12/04 13:04:29;;;;;;;24.50;15.20;;;3.00;74.10;;;;;;5117208;27;20554;-78
2022/12/04 13:07:16;;;;;;;23.90;14.37;;;3.00;74.20;;;;;;5117633;27;20035;-78
2022/12/04 13:09:50;;;;;;;27.27;16.67;;;3.10;74.10;;;;;;5117827;27;20087;-70
2022/12/04 13:12:19;;;;;;;27.33;15.80;;;3.10;74.00;;;;;;5117730;27;20058;-70
2022/12/04 13:14:44;;;;;;;26.80;16.47;;;3.10;73.90;;;;;;5117335;27;20039;-70